createdAt,value
2019-03-05T00:00:20.478Z,6.00
2019-03-05T00:02:49.780Z,7.12
2019-03-05T00:05:19.048Z,8.23
2019-03-05T00:07:48.250Z,4.97
2019-03-05T00:10:18.996Z,8.30
2019-03-05T00:12:48.211Z,7.90
2019-03-05T00:15:19.624Z,6.00
2019-03-05T00:17:48.798Z,8.15
2019-03-05T00:20:18.041Z,11.28
2019-03-05T00:22:47.245Z,11.53
2019-03-05T00:25:18.365Z,11.63
2019-03-05T00:28:20.533Z,12.73
2019-03-05T00:31:14.217Z,10.75
2019-03-05T00:34:03.290Z,14.18
2019-03-05T00:36:39.014Z,14.78
2019-03-05T00:39:40.120Z,15.48
2019-03-05T00:42:46.095Z,18.60
2019-03-05T00:46:04.975Z,17.65
2019-03-05T00:49:10.750Z,14.30
2019-03-05T00:52:20.699Z,14.63
2019-03-05T00:55:34.542Z,13.75
2019-03-05T00:58:34.064Z,14.85
2019-03-05T01:01:37.452Z,16.77
2019-03-05T01:04:44.780Z,17.42
2019-03-05T01:07:14.290Z,16.90
2019-03-05T01:09:43.485Z,16.60
2019-03-05T01:12:14.323Z,16.67
2019-03-05T01:14:43.710Z,19.30
2019-03-05T01:17:12.908Z,18.80
2019-03-05T01:19:42.131Z,18.07
2019-03-05T01:22:11.398Z,20.57
2019-03-05T01:24:40.620Z,14.35
2019-03-05T01:27:09.800Z,16.15
2019-03-05T01:29:39.024Z,19.60
2019-03-05T01:32:24.305Z,21.20
2019-03-05T01:35:11.214Z,19.73
2019-03-05T01:37:40.405Z,18.37
2019-03-05T01:40:28.657Z,16.65
2019-03-05T01:42:57.838Z,17.80
2019-03-05T01:45:27.068Z,20.45
2019-03-05T01:47:56.269Z,19.07
2019-03-05T01:50:25.467Z,18.35
2019-03-05T01:52:54.670Z,19.10
2019-03-05T01:55:23.845Z,19.00
2019-03-05T01:57:53.058Z,17.95
2019-03-05T02:00:22.338Z,17.25
2019-03-05T02:02:51.657Z,15.53
2019-03-05T02:05:20.893Z,17.02
2019-03-05T02:07:50.484Z,17.82
2019-03-05T02:10:22.607Z,22.25
2019-03-05T02:12:51.796Z,19.20
2019-03-05T02:15:21.106Z,15.50
2019-03-05T02:17:50.295Z,18.55
2019-03-05T02:20:38.607Z,21.12
2019-03-05T02:23:38.108Z,16.48
2019-03-05T02:26:49.002Z,15.93
2019-03-05T02:29:25.622Z,19.05
2019-03-05T02:32:51.038Z,17.15
2019-03-05T02:35:54.647Z,16.70
2019-03-05T02:39:15.281Z,16.35
2019-03-05T02:41:50.687Z,18.27
2019-03-05T02:45:03.519Z,16.05
2019-03-05T02:48:07.848Z,19.95
2019-03-05T02:51:02.922Z,17.70
2019-03-05T02:54:17.835Z,17.82
2019-03-05T02:57:08.389Z,19.60
2019-03-05T02:59:37.620Z,17.70
2019-03-05T03:02:30.208Z,19.48
2019-03-05T03:05:21.578Z,14.05
2019-03-05T03:07:50.770Z,15.85
2019-03-05T03:10:22.058Z,15.20
2019-03-05T03:12:51.361Z,19.85
2019-03-05T03:15:20.774Z,19.30
2019-03-05T03:17:50.554Z,15.98
2019-03-05T03:20:23.709Z,20.27
2019-03-05T03:22:52.922Z,16.42
2019-03-05T03:25:23.555Z,15.90
2019-03-05T03:27:52.951Z,14.70
2019-03-05T03:30:23.823Z,14.50
2019-03-05T03:32:53.021Z,19.37
2019-03-05T03:35:22.222Z,14.60
2019-03-05T03:37:51.393Z,16.35
2019-03-05T03:40:22.213Z,22.70
2019-03-05T03:42:51.422Z,17.40
2019-03-05T03:45:22.564Z,16.25
2019-03-05T03:47:51.741Z,22.17
2019-03-05T03:50:20.930Z,19.52
2019-03-05T03:52:50.115Z,23.80
2019-03-05T03:55:19.387Z,18.23
2019-03-05T03:57:48.662Z,17.00
2019-03-05T04:00:22.561Z,19.23
2019-03-05T04:02:51.990Z,16.90
2019-03-05T04:05:21.225Z,17.35
2019-03-05T04:07:50.392Z,17.55
2019-03-05T04:10:19.641Z,14.43
2019-03-05T04:12:48.845Z,14.53
2019-03-05T04:15:21.699Z,12.98
2019-03-05T04:17:50.877Z,18.35
2019-03-05T04:20:39.785Z,12.30
2019-03-05T04:23:08.945Z,14.78
2019-03-05T04:25:38.167Z,11.55
2019-03-05T04:28:07.371Z,13.55
2019-03-05T04:30:36.566Z,7.08
2019-03-05T04:33:05.758Z,9.55
2019-03-05T04:35:34.938Z,8.63
2019-03-05T04:38:04.431Z,5.28
2019-03-05T04:40:33.639Z,5.65
2019-03-05T04:43:02.807Z,3.30
2019-03-05T04:45:55.905Z,5.17
2019-03-05T04:48:25.083Z,2.90
2019-03-05T04:50:57.717Z,4.50
2019-03-05T04:53:26.931Z,4.65
2019-03-05T04:55:56.118Z,3.85
2019-03-05T04:58:25.276Z,4.17
2019-03-05T05:00:54.466Z,5.30
2019-03-05T05:03:23.673Z,4.70
2019-03-05T05:05:52.870Z,3.15
2019-03-05T05:08:22.069Z,3.20
2019-03-05T05:10:51.289Z,6.25
2019-03-05T05:13:20.524Z,4.22
2019-03-05T05:15:49.713Z,6.08
2019-03-05T05:18:18.958Z,5.15
2019-03-05T05:20:48.152Z,7.05
2019-03-05T05:23:17.374Z,6.87
2019-03-05T05:25:46.589Z,8.30
2019-03-05T05:28:15.789Z,9.15
2019-03-05T05:30:45.004Z,7.30
2019-03-05T05:33:14.198Z,10.80
2019-03-05T05:35:43.385Z,11.63
2019-03-05T05:38:12.570Z,8.23
2019-03-05T05:40:43.689Z,9.58
2019-03-05T05:43:15.643Z,8.13
2019-03-05T05:45:49.213Z,11.80
2019-03-05T05:48:18.519Z,12.05
2019-03-05T05:50:47.693Z,10.98
2019-03-05T05:53:16.974Z,9.88
2019-03-05T05:55:46.162Z,14.58
2019-03-05T05:58:15.355Z,7.15
2019-03-05T06:00:47.063Z,11.80
2019-03-05T06:03:16.303Z,9.40
2019-03-05T06:05:45.354Z,8.33
2019-03-05T06:08:14.550Z,12.88
2019-03-05T06:10:43.797Z,11.48
2019-03-05T06:13:13.002Z,7.72
2019-03-05T06:15:42.188Z,9.93
2019-03-05T06:18:11.397Z,13.78
2019-03-05T06:20:42.547Z,11.00
2019-03-05T06:23:11.518Z,15.70
2019-03-05T06:25:40.717Z,11.73
2019-03-05T06:28:09.934Z,10.15
2019-03-05T06:30:39.295Z,12.82
2019-03-05T06:33:08.501Z,9.33
2019-03-05T06:35:37.723Z,13.85
2019-03-05T06:38:06.928Z,11.00
2019-03-05T06:40:36.149Z,10.82
2019-03-05T06:43:05.447Z,8.78
2019-03-05T06:45:34.664Z,12.10
2019-03-05T06:48:03.967Z,10.90
2019-03-05T06:50:33.217Z,11.80
2019-03-05T06:53:02.429Z,10.93
2019-03-05T06:55:31.633Z,10.78
2019-03-05T06:58:00.838Z,9.83
2019-03-05T07:00:34.867Z,9.35
2019-03-05T07:03:04.356Z,7.10
2019-03-05T07:06:08.843Z,10.38
2019-03-05T07:08:40.782Z,10.95
2019-03-05T07:11:50.117Z,8.58
2019-03-05T07:14:31.393Z,7.87
2019-03-05T07:17:28.164Z,6.70
2019-03-05T07:20:56.255Z,8.98
2019-03-05T07:23:48.563Z,4.67
2019-03-05T07:26:18.024Z,10.55
2019-03-05T07:28:47.222Z,7.95
2019-03-05T07:31:16.422Z,8.70
2019-03-05T07:33:45.621Z,7.33
2019-03-05T07:36:15.335Z,6.15
2019-03-05T07:38:44.509Z,4.90
2019-03-05T07:41:13.748Z,6.25
2019-03-05T07:43:42.940Z,5.70
2019-03-05T07:46:12.176Z,6.83
2019-03-05T07:48:41.384Z,7.85
2019-03-05T07:51:10.601Z,6.60
2019-03-05T07:53:39.807Z,8.95
2019-03-05T07:56:08.990Z,10.23
2019-03-05T07:58:38.265Z,7.03
2019-03-05T08:01:07.464Z,7.65
2019-03-05T08:03:36.639Z,6.95
2019-03-05T08:06:05.838Z,8.55
2019-03-05T08:09:10.635Z,7.90
2019-03-05T08:11:39.919Z,7.42
2019-03-05T08:14:51.363Z,8.20
2019-03-05T08:17:20.629Z,9.33
2019-03-05T08:19:49.810Z,9.00
2019-03-05T08:22:19.002Z,8.93
2019-03-05T08:24:48.149Z,9.25
2019-03-05T08:27:17.331Z,6.40
2019-03-05T08:29:46.573Z,7.20
2019-03-05T08:32:15.762Z,8.03
2019-03-05T08:34:44.954Z,8.60
2019-03-05T08:37:14.126Z,6.72
2019-03-05T08:39:43.330Z,6.60
2019-03-05T08:42:12.510Z,8.40
2019-03-05T08:44:49.899Z,9.60
2019-03-05T08:47:12.634Z,9.15
2019-03-05T08:49:41.875Z,6.53
2019-03-05T08:52:11.462Z,8.68
2019-03-05T08:54:40.648Z,5.95
2019-03-05T08:57:09.960Z,7.92
2019-03-05T08:59:39.190Z,6.85
2019-03-05T09:02:08.458Z,8.33
2019-03-05T09:04:37.671Z,8.60
2019-03-05T09:07:06.872Z,8.13
2019-03-05T09:09:36.092Z,6.08
2019-03-05T09:12:05.721Z,8.10
2019-03-05T09:14:34.920Z,10.53
2019-03-05T09:17:04.723Z,7.70
2019-03-05T09:19:33.949Z,6.62
2019-03-05T09:22:03.137Z,6.55
2019-03-05T09:24:32.345Z,4.47
2019-03-05T09:27:01.527Z,5.75
2019-03-05T09:29:30.749Z,7.45
2019-03-05T09:31:59.924Z,7.53
2019-03-05T09:34:29.107Z,6.42
2019-03-05T09:36:58.315Z,5.95
2019-03-05T09:39:27.497Z,6.53
2019-03-05T09:41:56.718Z,6.55
2019-03-05T09:44:25.906Z,6.92
2019-03-05T09:46:55.133Z,7.87
2019-03-05T09:49:24.308Z,7.03
2019-03-05T09:51:53.474Z,6.20
2019-03-05T09:54:22.677Z,6.37
2019-03-05T09:56:51.920Z,5.25
2019-03-05T09:59:21.164Z,6.22
2019-03-05T10:01:53.965Z,5.75
2019-03-05T10:04:23.184Z,5.15
2019-03-05T10:06:52.492Z,6.55
2019-03-05T10:09:21.686Z,7.05
2019-03-05T10:11:56.594Z,4.37
2019-03-05T10:14:21.921Z,4.28
2019-03-05T10:16:51.159Z,5.22
2019-03-05T10:19:20.340Z,3.92
2019-03-05T10:21:49.547Z,4.78
2019-03-05T10:24:18.751Z,4.67
2019-03-05T10:26:47.944Z,2.83
2019-03-05T10:29:17.157Z,2.60
2019-03-05T10:31:46.333Z,2.75
2019-03-05T10:34:15.573Z,4.70
2019-03-05T10:36:44.767Z,4.67
2019-03-05T10:39:30.963Z,4.20
2019-03-05T10:42:00.720Z,4.17
2019-03-05T10:44:29.953Z,4.28
2019-03-05T10:46:59.161Z,5.58
2019-03-05T10:49:28.344Z,4.40
2019-03-05T10:51:58.903Z,4.42
2019-03-05T10:54:28.301Z,4.95
2019-03-05T10:56:57.601Z,3.45
2019-03-05T10:59:26.892Z,3.60
2019-03-05T11:01:56.172Z,4.08
2019-03-05T11:04:26.056Z,4.47
2019-03-05T11:06:55.261Z,4.17
2019-03-05T11:09:24.462Z,5.50
2019-03-05T11:11:53.685Z,4.40
2019-03-05T11:14:22.945Z,4.22
2019-03-05T11:16:52.478Z,4.65
2019-03-05T11:19:21.698Z,4.35
2019-03-05T11:21:50.892Z,4.47
2019-03-05T11:24:20.090Z,4.22
2019-03-05T11:26:49.306Z,3.77
2019-03-05T11:29:18.528Z,3.95
2019-03-05T11:31:47.774Z,4.25
2019-03-05T11:34:16.992Z,4.60
2019-03-05T11:36:46.393Z,4.67
2019-03-05T11:39:15.682Z,4.00
2019-03-05T11:41:44.881Z,5.20
2019-03-05T11:44:14.075Z,4.42
2019-03-05T11:46:43.275Z,4.83
2019-03-05T11:49:12.549Z,5.00
2019-03-05T11:51:41.725Z,6.05
2019-03-05T11:54:10.954Z,5.28
2019-03-05T11:56:40.171Z,5.50
2019-03-05T11:59:09.533Z,4.95
2019-03-05T12:01:42.154Z,6.37
2019-03-05T12:04:11.403Z,7.42
2019-03-05T12:06:40.605Z,7.03
2019-03-05T12:09:09.892Z,7.87
2019-03-05T12:11:39.091Z,6.25
2019-03-05T12:14:08.326Z,7.95
2019-03-05T12:16:37.550Z,7.37
2019-03-05T12:19:06.836Z,7.87
2019-03-05T12:21:36.064Z,7.92
2019-03-05T12:24:05.262Z,8.30
2019-03-05T12:26:34.462Z,7.33
2019-03-05T12:29:03.645Z,7.45
2019-03-05T12:31:32.884Z,8.90
2019-03-05T12:34:02.147Z,7.35
2019-03-05T12:36:31.342Z,8.50
2019-03-05T12:39:00.534Z,9.00
2019-03-05T12:41:29.718Z,8.25
2019-03-05T12:43:58.928Z,9.33
2019-03-05T12:46:28.124Z,8.25
2019-03-05T12:48:57.344Z,11.12
2019-03-05T12:51:26.643Z,7.78
2019-03-05T12:53:55.897Z,9.18
2019-03-05T12:56:25.114Z,9.13
2019-03-05T12:58:54.437Z,8.98
2019-03-05T13:01:23.688Z,9.95
2019-03-05T13:03:52.933Z,8.53
2019-03-05T13:06:22.143Z,10.38
2019-03-05T13:08:51.337Z,7.90
2019-03-05T13:11:20.533Z,9.15
2019-03-05T13:13:52.774Z,8.98
2019-03-05T13:16:20.749Z,8.23
2019-03-05T13:18:49.937Z,8.95
2019-03-05T13:21:19.170Z,8.30
2019-03-05T13:23:48.531Z,8.28
2019-03-05T13:26:17.729Z,7.47
2019-03-05T13:28:46.942Z,8.03
2019-03-05T13:31:16.129Z,6.90
2019-03-05T13:33:45.323Z,6.45
2019-03-05T13:36:16.484Z,6.15
2019-03-05T13:38:46.427Z,7.53
2019-03-05T13:41:16.876Z,5.67
2019-03-05T13:43:46.309Z,7.83
2019-03-05T13:46:15.494Z,5.83
2019-03-05T13:49:28.696Z,6.25
2019-03-05T13:52:38.917Z,8.25
2019-03-05T13:55:23.586Z,6.70
2019-03-05T13:58:31.624Z,6.62
2019-03-05T14:01:01.098Z,5.53
2019-03-05T14:03:41.126Z,5.60
2019-03-05T14:06:47.987Z,4.65
2019-03-05T14:09:16.307Z,6.10
2019-03-05T14:11:46.930Z,4.95
2019-03-05T14:14:36.139Z,4.50
2019-03-05T14:17:34.949Z,4.37
2019-03-05T14:20:05.310Z,7.05
2019-03-05T14:22:34.531Z,5.12
2019-03-05T14:25:04.240Z,4.75
2019-03-05T14:27:33.439Z,4.37
2019-03-05T14:30:03.269Z,5.42
2019-03-05T14:32:32.602Z,4.78
2019-03-05T14:35:03.559Z,4.60
2019-03-05T14:37:33.383Z,5.75
2019-03-05T14:40:22.896Z,5.30
2019-03-05T14:42:34.019Z,5.58
2019-03-05T14:45:03.382Z,5.87
2019-03-05T14:47:32.651Z,5.22
2019-03-05T14:50:01.980Z,4.58
2019-03-05T14:52:31.224Z,3.70
2019-03-05T14:55:00.631Z,3.65
2019-03-05T14:57:29.849Z,5.62
2019-03-05T14:59:59.418Z,6.53
2019-03-05T15:02:28.647Z,3.58
2019-03-05T15:04:57.888Z,5.30
2019-03-05T15:07:27.097Z,5.37
2019-03-05T15:09:56.297Z,4.05
2019-03-05T15:12:25.530Z,5.72
2019-03-05T15:14:54.767Z,5.58
2019-03-05T15:17:24.029Z,4.40
2019-03-05T15:19:53.263Z,6.40
2019-03-05T15:22:22.471Z,7.58
2019-03-05T15:24:52.028Z,5.90
2019-03-05T15:27:21.292Z,6.95
2019-03-05T15:29:50.738Z,6.40
2019-03-05T15:32:20.245Z,7.25
2019-03-05T15:34:49.578Z,5.08
2019-03-05T15:37:18.889Z,5.28
2019-03-05T15:39:48.055Z,5.70
2019-03-05T15:42:17.397Z,5.53
2019-03-05T15:44:46.703Z,5.00
2019-03-05T15:47:16.062Z,4.70
2019-03-05T15:49:45.293Z,6.70
2019-03-05T15:52:14.484Z,7.00
2019-03-05T15:54:43.706Z,4.87
2019-03-05T15:57:12.909Z,3.65
2019-03-05T15:59:42.236Z,6.12
2019-03-05T16:02:11.543Z,5.75
2019-03-05T16:04:44.028Z,3.95
2019-03-05T16:07:15.567Z,7.62
2019-03-05T16:09:45.006Z,6.00
2019-03-05T16:12:14.279Z,5.05
2019-03-05T16:14:43.606Z,5.95
2019-03-05T16:17:12.875Z,7.12
2019-03-05T16:19:42.242Z,5.83
2019-03-05T16:22:14.284Z,6.33
2019-03-05T16:24:42.490Z,6.65
2019-03-05T16:27:11.806Z,6.00
2019-03-05T16:29:41.074Z,6.25
2019-03-05T16:32:26.835Z,4.92
2019-03-05T16:35:26.232Z,6.25
2019-03-05T16:38:09.686Z,5.47
2019-03-05T16:40:57.122Z,4.83
2019-03-05T16:43:44.554Z,5.97
2019-03-05T16:46:36.074Z,10.93
2019-03-05T16:49:24.948Z,14.45
2019-03-05T16:52:22.377Z,13.53
2019-03-05T16:55:19.587Z,22.17
2019-03-05T16:58:09.951Z,11.48
2019-03-05T17:00:53.372Z,8.28
2019-03-05T17:03:47.391Z,17.52
2019-03-05T17:06:35.897Z,7.75
2019-03-05T17:09:35.183Z,4.97
2019-03-05T17:12:04.527Z,7.17
2019-03-05T17:14:33.727Z,4.87
2019-03-05T17:17:02.968Z,3.30
2019-03-05T17:19:32.587Z,4.25
2019-03-05T17:22:02.110Z,5.87
2019-03-05T17:24:31.355Z,3.72
2019-03-05T17:27:00.563Z,5.08
2019-03-05T17:29:29.808Z,5.70
2019-03-05T17:31:59.637Z,4.80
2019-03-05T17:34:29.072Z,3.77
2019-03-05T17:36:58.617Z,8.35
2019-03-05T17:39:28.147Z,11.40
2019-03-05T17:41:57.386Z,10.13
2019-03-05T17:44:26.842Z,30.68
2019-03-05T17:46:56.101Z,23.87
2019-03-05T17:49:25.294Z,21.33
2019-03-05T17:51:55.101Z,18.73
2019-03-05T17:54:24.309Z,20.62
2019-03-05T17:56:54.101Z,16.20
2019-03-05T17:59:23.376Z,18.65
2019-03-05T18:01:52.887Z,14.87
2019-03-05T18:04:22.234Z,9.08
2019-03-05T18:06:51.593Z,11.30
2019-03-05T18:09:20.916Z,5.97
2019-03-05T18:11:50.137Z,10.63
2019-03-05T18:14:19.501Z,8.15
2019-03-05T18:16:48.799Z,8.75
2019-03-05T18:19:18.181Z,8.00
2019-03-05T18:21:47.529Z,9.25
2019-03-05T18:24:16.865Z,5.72
2019-03-05T18:26:46.101Z,6.35
2019-03-05T18:29:15.613Z,8.45
2019-03-05T18:31:44.950Z,5.10
2019-03-05T18:34:14.437Z,8.48
2019-03-05T18:36:43.705Z,10.23
2019-03-05T18:39:13.498Z,7.08
2019-03-05T18:41:42.804Z,11.60
2019-03-05T18:44:12.466Z,10.58
2019-03-05T18:46:41.700Z,8.15
2019-03-05T18:49:11.198Z,13.13
2019-03-05T18:51:40.411Z,11.60
2019-03-05T18:54:09.726Z,12.18
2019-03-05T18:56:39.383Z,9.75
2019-03-05T18:59:09.236Z,12.88
2019-03-05T19:01:39.074Z,13.43
2019-03-05T19:04:08.318Z,10.93
2019-03-05T19:06:37.921Z,7.97
2019-03-05T19:09:08.089Z,9.85
2019-03-05T19:11:38.076Z,9.43
2019-03-05T19:14:07.581Z,10.43
2019-03-05T19:16:36.942Z,11.55
2019-03-05T19:19:09.828Z,16.52
2019-03-05T19:21:40.225Z,17.42
2019-03-05T19:24:10.198Z,14.98
2019-03-05T19:26:40.263Z,15.18
2019-03-05T19:29:10.384Z,11.55
2019-03-05T19:31:40.711Z,9.53
2019-03-05T19:34:11.587Z,10.38
2019-03-05T19:36:41.586Z,8.68
2019-03-05T19:39:11.255Z,10.80
2019-03-05T19:41:40.922Z,5.75
2019-03-05T19:44:11.634Z,8.85
2019-03-05T19:46:42.100Z,7.95
2019-03-05T19:49:12.156Z,6.65
2019-03-05T19:51:42.250Z,5.55
2019-03-05T19:54:12.702Z,5.92
2019-03-05T19:56:42.535Z,11.53
2019-03-05T19:59:13.236Z,10.43
2019-03-05T20:01:47.867Z,10.15
2019-03-05T20:04:18.463Z,9.93
2019-03-05T20:06:48.391Z,8.23
2019-03-05T20:09:24.189Z,10.28
2019-03-05T20:11:54.624Z,8.68
2019-03-05T20:14:24.795Z,6.95
2019-03-05T20:16:54.988Z,6.92
2019-03-05T20:19:24.965Z,6.35
2019-03-05T20:21:55.187Z,7.10
2019-03-05T20:24:25.136Z,7.47
2019-03-05T20:26:56.033Z,9.93
2019-03-05T20:29:25.961Z,7.72
2019-03-05T20:31:55.841Z,10.60
2019-03-05T20:34:25.532Z,7.47
2019-03-05T20:36:55.203Z,6.12
2019-03-05T20:39:25.430Z,8.40
2019-03-05T20:41:55.316Z,5.60
2019-03-05T20:44:25.520Z,7.17
2019-03-05T20:46:56.028Z,10.58
2019-03-05T20:49:25.828Z,7.22
2019-03-05T20:51:55.532Z,7.97
2019-03-05T20:54:26.305Z,5.58
2019-03-05T20:56:57.175Z,6.72
2019-03-05T20:59:26.605Z,7.15
2019-03-05T21:01:55.837Z,7.35
2019-03-05T21:04:25.618Z,5.65
2019-03-05T21:06:55.206Z,6.67
2019-03-05T21:09:25.250Z,5.90
2019-03-05T21:11:54.767Z,8.65
2019-03-05T21:14:24.383Z,7.15
2019-03-05T21:16:54.059Z,7.30
2019-03-05T21:19:23.990Z,15.35
2019-03-05T21:21:53.600Z,12.63
2019-03-05T21:24:23.632Z,22.58
2019-03-05T21:26:52.977Z,31.55
2019-03-05T21:29:22.354Z,41.95
2019-03-05T21:31:51.652Z,29.07
2019-03-05T21:34:20.917Z,17.35
2019-03-05T21:36:50.325Z,15.80
2019-03-05T21:39:20.290Z,48.63
2019-03-05T21:41:49.694Z,21.68
2019-03-05T21:44:18.980Z,23.35
2019-03-05T21:46:48.510Z,23.80
2019-03-05T21:49:17.900Z,17.67
2019-03-05T21:51:47.335Z,10.98
2019-03-05T21:54:16.638Z,14.05
2019-03-05T21:56:45.909Z,9.85
2019-03-05T21:59:15.189Z,11.73
2019-03-05T22:01:44.425Z,12.23
2019-03-05T22:04:13.669Z,13.20
2019-03-05T22:06:42.919Z,13.62
2019-03-05T22:09:12.159Z,8.23
2019-03-05T22:11:41.725Z,8.73
2019-03-05T22:14:10.963Z,7.15
2019-03-05T22:16:40.150Z,7.05
2019-03-05T22:19:09.352Z,6.10
2019-03-05T22:21:38.686Z,11.38
2019-03-05T22:24:08.121Z,6.40
2019-03-05T22:26:37.322Z,5.55
2019-03-05T22:29:06.524Z,8.18
2019-03-05T22:31:35.752Z,9.68
2019-03-05T22:34:04.932Z,8.55
2019-03-05T22:36:34.215Z,6.95
2019-03-05T22:39:04.595Z,5.65
2019-03-05T22:41:33.836Z,5.80
2019-03-05T22:44:03.021Z,7.10
2019-03-05T22:46:32.644Z,8.25
2019-03-05T22:49:01.920Z,7.47
2019-03-05T22:51:31.112Z,7.33
2019-03-05T22:54:00.329Z,8.13
2019-03-05T22:56:29.528Z,6.22
2019-03-05T22:58:58.737Z,9.13
2019-03-05T23:01:37.206Z,9.60
2019-03-05T23:04:06.729Z,8.25
2019-03-05T23:06:36.543Z,11.38
2019-03-05T23:11:52.199Z,9.98
2019-03-05T23:14:21.915Z,7.50
2019-03-05T23:16:51.127Z,10.10
2019-03-05T23:19:20.471Z,5.85
2019-03-05T23:21:49.676Z,5.85
2019-03-05T23:24:18.865Z,7.70
2019-03-05T23:26:48.088Z,5.20
2019-03-05T23:29:18.357Z,7.95
2019-03-05T23:31:47.688Z,7.65
2019-03-05T23:34:18.431Z,8.18
2019-03-05T23:36:47.845Z,5.20
2019-03-05T23:39:17.905Z,8.10
2019-03-05T23:41:47.094Z,6.78
2019-03-05T23:44:16.399Z,4.25
2019-03-05T23:46:45.574Z,9.88
2019-03-05T23:49:14.775Z,8.28
2019-03-05T23:51:43.975Z,6.35
2019-03-05T23:54:13.181Z,7.50
2019-03-05T23:56:42.373Z,3.80
2019-03-05T23:59:11.558Z,5.78
